createdAt,value
2024-01-20T00:00:16.645Z,99937.47
2024-01-20T00:02:44.816Z,99958.16
2024-01-20T00:05:12.757Z,99968.47
2024-01-20T00:07:39.898Z,99943.53
2024-01-20T00:10:11.962Z,99965.09
2024-01-20T00:12:40.978Z,99957.00
2024-01-20T00:15:09.424Z,99942.50
2024-01-20T00:17:40.078Z,99974.84
2024-01-20T00:20:07.934Z,99973.59
2024-01-20T00:22:37.003Z,99979.53
2024-01-20T00:25:04.731Z,99977.84
2024-01-20T00:27:32.362Z,99975.16
2024-01-20T00:30:00.234Z,99972.56
2024-01-20T00:32:27.466Z,99991.59
2024-01-20T00:35:04.268Z,99994.25
2024-01-20T00:37:38.688Z,99996.00
2024-01-20T00:40:07.218Z,99983.22
2024-01-20T00:42:34.112Z,99984.38
2024-01-20T00:45:01.040Z,99982.50
2024-01-20T00:47:27.964Z,99980.78
2024-01-20T00:49:54.795Z,99983.50
2024-01-20T00:52:21.528Z,99981.03
2024-01-20T00:54:48.160Z,99980.22
2024-01-20T00:57:14.881Z,99962.94
2024-01-20T00:59:41.635Z,99949.50
2024-01-20T01:02:08.482Z,99976.59
2024-01-20T01:04:35.326Z,99982.09
2024-01-20T01:07:02.115Z,99979.88
2024-01-20T01:09:28.692Z,99962.56
2024-01-20T01:11:55.424Z,99960.72
2024-01-20T01:14:22.149Z,99956.84
2024-01-20T01:16:48.888Z,99954.47
2024-01-20T01:19:17.075Z,99948.78
2024-01-20T01:21:43.729Z,99953.75
2024-01-20T01:24:10.468Z,99964.78
2024-01-20T01:26:37.270Z,99957.50
2024-01-20T01:29:04.157Z,99948.09
2024-01-20T01:31:30.850Z,99964.47
2024-01-20T01:33:57.500Z,99952.56
2024-01-20T01:36:24.621Z,99957.78
2024-01-20T01:38:51.228Z,99976.03
2024-01-20T01:41:17.919Z,99969.22
2024-01-20T01:43:44.661Z,99983.50
2024-01-20T01:46:11.301Z,99983.53
2024-01-20T01:48:38.111Z,99983.69
2024-01-20T01:51:05.624Z,99968.25
2024-01-20T01:53:35.435Z,99970.25
2024-01-20T01:56:02.366Z,99980.06
2024-01-20T01:58:29.744Z,99969.84
2024-01-20T02:00:57.091Z,99973.59
2024-01-20T02:03:24.846Z,99978.56
2024-01-20T02:05:52.744Z,99978.22
2024-01-20T02:08:21.063Z,99975.63
2024-01-20T02:10:48.771Z,99954.88
2024-01-20T02:13:16.524Z,99965.81
2024-01-20T02:15:43.410Z,99945.44
2024-01-20T02:18:10.919Z,99951.13
2024-01-20T02:20:37.825Z,99934.00
2024-01-20T02:23:04.622Z,99931.56
2024-01-20T02:25:31.652Z,99923.16
2024-01-20T02:27:58.244Z,99929.63
2024-01-20T02:30:25.068Z,99914.28
2024-01-20T02:32:52.028Z,99925.09
2024-01-20T02:35:22.296Z,99900.25
2024-01-20T02:37:49.188Z,99919.41
2024-01-20T02:40:16.037Z,99909.81
2024-01-20T02:42:42.722Z,99907.03
2024-01-20T02:45:09.562Z,99908.00
2024-01-20T02:47:36.345Z,99900.44
2024-01-20T02:50:03.263Z,99919.47
2024-01-20T02:52:30.163Z,99897.72
2024-01-20T02:54:56.741Z,99894.38
2024-01-20T02:57:23.456Z,99901.09
2024-01-20T02:59:50.178Z,99891.69
2024-01-20T03:02:16.912Z,99874.63
2024-01-20T03:04:43.546Z,99878.03
2024-01-20T03:07:10.315Z,99876.75
2024-01-20T03:09:37.077Z,99877.06
2024-01-20T03:12:03.923Z,99863.53
2024-01-20T03:14:30.993Z,99873.69
2024-01-20T03:16:57.585Z,99873.84
2024-01-20T03:19:24.264Z,99859.31
2024-01-20T03:21:51.171Z,99869.88
2024-01-20T03:24:20.987Z,99858.44
2024-01-20T03:26:51.067Z,99867.66
2024-01-20T03:29:17.945Z,99866.56
2024-01-20T03:31:44.610Z,99869.19
2024-01-20T03:34:11.556Z,99861.78
2024-01-20T03:36:38.394Z,99857.69
2024-01-20T03:39:05.224Z,99853.66
2024-01-20T03:41:31.975Z,99858.50
2024-01-20T03:43:59.096Z,99842.13
2024-01-20T03:46:25.965Z,99840.63
2024-01-20T03:48:52.826Z,99831.31
2024-01-20T03:51:19.657Z,99833.75
2024-01-20T03:53:46.270Z,99828.56
2024-01-20T03:56:12.964Z,99830.72
2024-01-20T03:58:40.229Z,99829.22
2024-01-20T04:01:06.914Z,99816.84
2024-01-20T04:03:33.810Z,99814.03
2024-01-20T04:06:00.534Z,99810.38
2024-01-20T04:08:27.136Z,99812.84
2024-01-20T04:10:53.727Z,99800.41
2024-01-20T04:13:20.348Z,99791.88
2024-01-20T04:15:47.421Z,99787.84
2024-01-20T04:18:14.340Z,99779.94
2024-01-20T04:20:41.132Z,99761.78
2024-01-20T04:23:07.847Z,99790.38
2024-01-20T04:25:34.442Z,99783.81
2024-01-20T04:28:01.147Z,99787.31
2024-01-20T04:30:27.774Z,99789.94
2024-01-20T04:32:54.669Z,99777.44
2024-01-20T04:35:21.406Z,99775.09
2024-01-20T04:37:48.512Z,99773.41
2024-01-20T04:40:15.159Z,99767.03
2024-01-20T04:42:41.811Z,99765.53
2024-01-20T04:45:09.497Z,99750.75
2024-01-20T04:47:36.188Z,99753.88
2024-01-20T04:50:02.960Z,99745.47
2024-01-20T04:52:29.584Z,99749.22
2024-01-20T04:54:56.355Z,99751.44
2024-01-20T04:57:23.026Z,99737.00
2024-01-20T04:59:49.828Z,99743.03
2024-01-20T05:02:16.583Z,99741.19
2024-01-20T05:04:43.297Z,99741.34
2024-01-20T05:07:10.264Z,99735.84
2024-01-20T05:09:37.258Z,99748.97
2024-01-20T05:12:04.175Z,99729.28
2024-01-20T05:14:30.920Z,99727.66
2024-01-20T05:16:57.509Z,99736.16
2024-01-20T05:19:24.160Z,99729.50
2024-01-20T05:21:51.364Z,99728.16
2024-01-20T05:24:17.987Z,99717.75
2024-01-20T05:26:44.590Z,99726.88
2024-01-20T05:29:11.184Z,99724.97
2024-01-20T05:31:37.837Z,99724.94
2024-01-20T05:34:04.738Z,99727.78
2024-01-20T05:36:31.497Z,99731.22
2024-01-20T05:38:58.268Z,99740.16
2024-01-20T05:41:24.888Z,99735.41
2024-01-20T05:43:51.475Z,99734.13
2024-01-20T05:46:21.133Z,99741.44
2024-01-20T05:48:47.902Z,99738.78
2024-01-20T05:51:14.582Z,99729.59
2024-01-20T05:53:41.342Z,99734.69
2024-01-20T05:56:07.969Z,99745.97
2024-01-20T05:58:34.599Z,99740.69
2024-01-20T06:01:01.338Z,99740.16
2024-01-20T06:03:28.745Z,99743.31
2024-01-20T06:05:56.193Z,99750.28
2024-01-20T06:08:22.915Z,99733.94
2024-01-20T06:10:49.592Z,99743.53
2024-01-20T06:13:16.254Z,99721.84
2024-01-20T06:15:42.856Z,99748.78
2024-01-20T06:18:09.662Z,99737.16
2024-01-20T06:20:36.381Z,99750.19
2024-01-20T06:23:03.107Z,99751.84
2024-01-20T06:25:29.724Z,99745.25
2024-01-20T06:27:56.387Z,99736.81
2024-01-20T06:30:23.040Z,99726.16
2024-01-20T06:32:49.785Z,99737.97
2024-01-20T06:35:16.960Z,99730.97
2024-01-20T06:37:43.772Z,99736.28
2024-01-20T06:40:10.800Z,99750.06
2024-01-20T06:42:37.493Z,99746.13
2024-01-20T06:45:04.410Z,99737.75
2024-01-20T06:47:31.495Z,99735.31
2024-01-20T06:49:58.381Z,99748.72
2024-01-20T06:52:25.080Z,99719.31
2024-01-20T06:54:51.707Z,99754.06
2024-01-20T06:57:18.401Z,99746.19
2024-01-20T06:59:45.114Z,99736.03
2024-01-20T07:02:11.702Z,99736.41
2024-01-20T07:04:38.679Z,99743.53
2024-01-20T07:07:05.482Z,99744.38
2024-01-20T07:09:32.282Z,99735.88
2024-01-20T07:11:59.401Z,99743.31
2024-01-20T07:14:27.173Z,99742.56
2024-01-20T07:16:53.838Z,99740.31
2024-01-20T07:19:20.676Z,99736.41
2024-01-20T07:21:47.789Z,99734.69
2024-01-20T07:24:14.606Z,99729.44
2024-01-20T07:26:41.380Z,99712.72
2024-01-20T07:29:08.087Z,99728.47
2024-01-20T07:31:34.711Z,99731.84
2024-01-20T07:34:01.472Z,99740.44
2024-01-20T07:36:28.455Z,99752.56
2024-01-20T07:38:55.148Z,99739.56
2024-01-20T07:41:21.874Z,99736.28
2024-01-20T07:43:48.608Z,99732.34
2024-01-20T07:46:15.396Z,99734.47
2024-01-20T07:48:43.975Z,99726.34
2024-01-20T07:51:10.717Z,99733.19
2024-01-20T07:53:37.378Z,99724.56
2024-01-20T07:56:04.163Z,99729.50
2024-01-20T07:58:31.097Z,99726.59
2024-01-20T08:00:57.825Z,99720.13
2024-01-20T08:03:24.582Z,99712.94
2024-01-20T08:05:51.212Z,99705.41
2024-01-20T08:08:17.882Z,99706.22
2024-01-20T08:10:44.505Z,99716.13
2024-01-20T08:13:11.117Z,99725.22
2024-01-20T08:15:37.886Z,99739.19
2024-01-20T08:18:05.115Z,99725.31
2024-01-20T08:20:31.828Z,99738.66
2024-01-20T08:22:58.485Z,99732.19
2024-01-20T08:25:25.154Z,99721.97
2024-01-20T08:27:51.767Z,99738.75
2024-01-20T08:30:18.547Z,99730.25
2024-01-20T08:32:45.370Z,99731.22
2024-01-20T08:35:12.738Z,99729.06
2024-01-20T08:37:39.502Z,99719.59
2024-01-20T08:40:06.856Z,99722.50
2024-01-20T08:42:33.545Z,99716.28
2024-01-20T08:45:00.948Z,99708.53
2024-01-20T08:47:28.728Z,99699.00
2024-01-20T08:49:55.348Z,99704.38
2024-01-20T08:52:22.036Z,99681.78
2024-01-20T08:54:48.672Z,99692.13
2024-01-20T08:57:15.442Z,99683.44
2024-01-20T08:59:42.199Z,99688.50
2024-01-20T09:02:09.234Z,99695.75
2024-01-20T09:04:36.183Z,99675.38
2024-01-20T09:07:03.236Z,99695.19
2024-01-20T09:09:29.987Z,99693.63
2024-01-20T09:11:56.778Z,99701.00
2024-01-20T09:14:23.478Z,99650.69
2024-01-20T09:16:50.183Z,99693.28
2024-01-20T09:19:17.219Z,99699.03
2024-01-20T09:21:48.080Z,99710.19
2024-01-20T09:24:14.967Z,99679.22
2024-01-20T09:26:42.030Z,99701.91
2024-01-20T09:29:08.718Z,99701.56
2024-01-20T09:31:35.389Z,99711.38
2024-01-20T09:34:02.139Z,99702.34
2024-01-20T09:36:29.131Z,99705.91
2024-01-20T09:38:55.842Z,99709.91
2024-01-20T09:41:22.773Z,99697.63
2024-01-20T09:43:49.528Z,99695.66
2024-01-20T09:46:16.680Z,99716.41
2024-01-20T09:48:44.959Z,99707.97
2024-01-20T09:51:11.931Z,99709.25
2024-01-20T09:53:39.998Z,99717.84
2024-01-20T09:56:07.134Z,99703.56
2024-01-20T09:58:36.804Z,99708.66
2024-01-20T10:01:04.157Z,99695.19
2024-01-20T10:03:33.673Z,99707.31
2024-01-20T10:06:00.457Z,99711.59
2024-01-20T10:08:27.159Z,99705.28
2024-01-20T10:11:05.049Z,99704.34
2024-01-20T10:13:32.019Z,99666.81
2024-01-20T10:15:59.116Z,99691.22
2024-01-20T10:18:26.013Z,99696.25
2024-01-20T10:21:03.728Z,99695.03
2024-01-20T10:23:30.821Z,99698.31
2024-01-20T10:26:04.919Z,99697.94
2024-01-20T10:28:32.305Z,99702.53
2024-01-20T10:30:59.035Z,99706.06
2024-01-20T10:33:26.179Z,99720.53
2024-01-20T10:35:53.438Z,99716.72
2024-01-20T10:38:22.141Z,99717.16
2024-01-20T10:40:54.256Z,99709.06
2024-01-20T10:43:21.512Z,99718.81
2024-01-20T10:46:05.860Z,99697.63
2024-01-20T10:48:35.630Z,99679.34
2024-01-20T10:51:08.905Z,99669.75
2024-01-20T10:53:36.235Z,99657.00
2024-01-20T10:56:05.663Z,99661.94
2024-01-20T10:58:36.550Z,99696.97
2024-01-20T11:01:04.087Z,99704.00
2024-01-20T11:03:31.204Z,99710.75
2024-01-20T11:05:58.036Z,99711.47
2024-01-20T11:08:26.637Z,99679.53
2024-01-20T11:10:55.387Z,99689.94
2024-01-20T11:13:27.513Z,99708.41
2024-01-20T11:15:54.594Z,99696.06
2024-01-20T11:18:23.990Z,99686.97
2024-01-20T11:21:08.612Z,99695.34
2024-01-20T11:23:35.234Z,99688.06
2024-01-20T11:26:12.492Z,99689.38
2024-01-20T11:28:44.410Z,99673.88
2024-01-20T11:31:21.158Z,99677.81
2024-01-20T11:33:48.335Z,99681.19
2024-01-20T11:36:17.104Z,99676.81
2024-01-20T11:38:44.918Z,99674.50
2024-01-20T11:41:11.770Z,99689.38
2024-01-20T11:43:45.396Z,99695.19
2024-01-20T11:46:12.441Z,99704.91
2024-01-20T11:48:39.522Z,99700.50
2024-01-20T11:51:06.444Z,99701.72
2024-01-20T11:53:34.468Z,99700.50
2024-01-20T11:56:03.084Z,99704.00
2024-01-20T11:58:31.756Z,99692.44
2024-01-20T12:01:00.048Z,99680.97
2024-01-20T12:03:28.351Z,99676.81
2024-01-20T12:05:55.781Z,99659.03
2024-01-20T12:08:22.997Z,99670.84
2024-01-20T12:10:50.590Z,99661.13
2024-01-20T12:13:18.374Z,99656.22
2024-01-20T12:15:47.810Z,99665.44
2024-01-20T12:18:16.547Z,99660.00
2024-01-20T12:20:44.980Z,99647.16
2024-01-20T12:23:18.134Z,99649.69
2024-01-20T12:25:44.738Z,99649.91
2024-01-20T12:28:11.323Z,99639.09
2024-01-20T12:30:38.057Z,99634.94
2024-01-20T12:33:04.949Z,99639.59
2024-01-20T12:35:33.236Z,99638.06
2024-01-20T12:37:59.900Z,99651.75
2024-01-20T12:40:27.556Z,99644.63
2024-01-20T12:42:55.059Z,99657.00
2024-01-20T12:45:21.779Z,99650.25
2024-01-20T12:47:48.592Z,99653.75
2024-01-20T12:50:15.382Z,99656.00
2024-01-20T12:52:42.309Z,99647.63
2024-01-20T12:55:09.591Z,99655.28
2024-01-20T12:57:36.355Z,99664.91
2024-01-20T13:00:03.613Z,99642.88
2024-01-20T13:02:30.375Z,99652.25
2024-01-20T13:04:57.133Z,99657.38
2024-01-20T13:07:25.032Z,99670.63
2024-01-20T13:09:51.803Z,99685.38
2024-01-20T13:12:19.043Z,99683.22
2024-01-20T13:14:46.345Z,99678.41
2024-01-20T13:17:13.252Z,99670.69
2024-01-20T13:19:40.109Z,99675.78
2024-01-20T13:22:06.748Z,99665.25
2024-01-20T13:24:33.447Z,99657.44
2024-01-20T13:27:00.137Z,99666.31
2024-01-20T13:29:26.948Z,99661.50
2024-01-20T13:31:53.634Z,99668.47
2024-01-20T13:34:20.802Z,99662.81
2024-01-20T13:36:47.507Z,99658.50
2024-01-20T13:39:15.749Z,99652.91
2024-01-20T13:41:42.585Z,99649.81
2024-01-20T13:44:09.159Z,99648.06
2024-01-20T13:46:35.853Z,99659.06
2024-01-20T13:49:05.582Z,99654.63
2024-01-20T13:51:34.260Z,99652.47
2024-01-20T13:54:01.057Z,99646.84
2024-01-20T13:56:27.836Z,99637.84
2024-01-20T13:58:55.080Z,99635.38
2024-01-20T14:01:24.778Z,99635.06
2024-01-20T14:03:51.917Z,99636.22
2024-01-20T14:06:19.606Z,99622.81
2024-01-20T14:08:46.561Z,99628.53
2024-01-20T14:11:13.209Z,99616.09
2024-01-20T14:13:39.889Z,99626.38
2024-01-20T14:16:06.945Z,99627.09
2024-01-20T14:18:33.791Z,99619.28
2024-01-20T14:21:00.625Z,99622.03
2024-01-20T14:23:27.277Z,99622.47
2024-01-20T14:25:54.484Z,99625.66
2024-01-20T14:28:21.149Z,99618.13
2024-01-20T14:30:47.820Z,99625.25
2024-01-20T14:33:14.623Z,99615.59
2024-01-20T14:35:41.326Z,99615.97
2024-01-20T14:38:07.972Z,99613.63
2024-01-20T14:40:34.609Z,99610.81
2024-01-20T14:43:03.030Z,99616.81
2024-01-20T14:45:31.476Z,99609.38
2024-01-20T14:47:58.277Z,99615.03
2024-01-20T14:50:24.963Z,99595.84
2024-01-20T14:52:51.601Z,99600.53
2024-01-20T14:55:18.216Z,99595.25
2024-01-20T14:57:45.045Z,99593.75
2024-01-20T15:00:12.221Z,99595.16
2024-01-20T15:02:38.838Z,99575.19
2024-01-20T15:05:06.579Z,99559.88
2024-01-20T15:07:34.940Z,99555.63
2024-01-20T15:10:02.235Z,99553.69
2024-01-20T15:12:29.000Z,99522.44
2024-01-20T15:14:56.939Z,99551.56
2024-01-20T15:17:23.807Z,99534.75
2024-01-20T15:19:51.211Z,99536.41
2024-01-20T15:22:18.781Z,99535.78
2024-01-20T15:24:45.871Z,99531.06
2024-01-20T15:27:12.694Z,99529.28
2024-01-20T15:29:39.397Z,99517.94
2024-01-20T15:32:06.476Z,99518.81
2024-01-20T15:34:33.186Z,99512.66
2024-01-20T15:36:59.919Z,99504.78
2024-01-20T15:39:26.638Z,99501.78
2024-01-20T15:41:53.443Z,99513.78
2024-01-20T15:44:20.244Z,99530.41
2024-01-20T15:46:46.832Z,99554.31
2024-01-20T15:49:15.092Z,99554.66
2024-01-20T15:51:42.363Z,99566.69
2024-01-20T15:54:09.986Z,99572.19
2024-01-20T15:56:43.006Z,99585.06
2024-01-20T15:59:09.795Z,99582.22
2024-01-20T16:01:36.553Z,99574.31
2024-01-20T16:04:04.495Z,99584.59
2024-01-20T16:06:31.521Z,99573.28
2024-01-20T16:08:58.222Z,99572.00
2024-01-20T16:11:25.014Z,99551.09
2024-01-20T16:13:51.670Z,99547.13
2024-01-20T16:16:18.310Z,99546.78
2024-01-20T16:18:45.132Z,99530.31
2024-01-20T16:21:11.871Z,99542.13
2024-01-20T16:23:38.580Z,99537.50
2024-01-20T16:26:05.231Z,99529.94
2024-01-20T16:28:33.660Z,99501.91
2024-01-20T16:31:01.326Z,99494.09
2024-01-20T16:33:28.456Z,99498.75
2024-01-20T16:35:55.415Z,99485.22
2024-01-20T16:38:22.139Z,99478.97
2024-01-20T16:40:48.813Z,99494.09
2024-01-20T16:43:15.498Z,99481.63
2024-01-20T16:45:42.176Z,99495.44
2024-01-20T16:48:09.180Z,99495.84
2024-01-20T16:50:37.045Z,99485.38
2024-01-20T16:53:04.071Z,99482.41
2024-01-20T16:55:30.992Z,99489.66
2024-01-20T16:57:59.219Z,99481.16
2024-01-20T17:00:26.087Z,99475.72
2024-01-20T17:02:53.096Z,99480.84
2024-01-20T17:05:20.000Z,99474.59
2024-01-20T17:07:47.037Z,99483.13
2024-01-20T17:10:14.904Z,99474.88
2024-01-20T17:12:41.887Z,99458.47
2024-01-20T17:15:09.790Z,99474.19
2024-01-20T17:17:37.297Z,99470.06
2024-01-20T17:20:05.269Z,99462.03
2024-01-20T17:22:32.025Z,99460.31
2024-01-20T17:24:58.610Z,99452.63
2024-01-20T17:27:25.309Z,99450.28
2024-01-20T17:29:51.956Z,99450.09
2024-01-20T17:32:18.635Z,99454.16
2024-01-20T17:34:45.299Z,99457.13
2024-01-20T17:37:13.631Z,99399.75
2024-01-20T17:39:40.443Z,99434.53
2024-01-20T17:42:07.774Z,99418.06
2024-01-20T17:44:35.214Z,99414.44
2024-01-20T17:47:01.832Z,99411.91
2024-01-20T17:49:28.612Z,99408.78
2024-01-20T17:51:55.511Z,99409.03
2024-01-20T17:54:28.499Z,99398.59
2024-01-20T17:56:55.683Z,99409.53
2024-01-20T17:59:22.825Z,99417.47
2024-01-20T18:01:49.510Z,99399.66
2024-01-20T18:04:16.410Z,99421.63
2024-01-20T18:06:43.279Z,99397.59
2024-01-20T18:09:10.165Z,99405.03
2024-01-20T18:11:36.920Z,99398.22
2024-01-20T18:14:03.760Z,99401.66
2024-01-20T18:16:30.453Z,99405.19
2024-01-20T18:18:57.207Z,99399.28
2024-01-20T18:21:23.945Z,99400.69
2024-01-20T18:23:50.610Z,99384.28
2024-01-20T18:26:17.285Z,99383.63
2024-01-20T18:28:43.910Z,99379.78
2024-01-20T18:31:10.708Z,99373.19
2024-01-20T18:33:37.540Z,99367.19
2024-01-20T18:36:04.638Z,99361.59
2024-01-20T18:38:32.309Z,99369.50
2024-01-20T18:40:58.938Z,99354.25
2024-01-20T18:43:25.668Z,99369.22
2024-01-20T18:45:52.352Z,99360.53
2024-01-20T18:48:19.225Z,99349.56
2024-01-20T18:50:45.950Z,99344.78
2024-01-20T18:53:13.915Z,99330.31
2024-01-20T18:55:43.952Z,99342.50
2024-01-20T18:58:12.126Z,99335.63
2024-01-20T19:00:41.320Z,99326.56
2024-01-20T19:03:09.758Z,99344.94
2024-01-20T19:05:36.555Z,99350.25
2024-01-20T19:08:04.283Z,99345.88
2024-01-20T19:10:31.892Z,99349.03
2024-01-20T19:12:58.610Z,99341.13
2024-01-20T19:15:25.349Z,99340.50
2024-01-20T19:17:52.143Z,99340.84
2024-01-20T19:20:24.889Z,99334.06
2024-01-20T19:22:51.993Z,99336.00
2024-01-20T19:25:19.138Z,99314.91
2024-01-20T19:27:45.812Z,99302.88
2024-01-20T19:30:12.937Z,99310.38
2024-01-20T19:32:39.839Z,99299.81
2024-01-20T19:35:06.802Z,99272.28
2024-01-20T19:37:33.513Z,99274.50
2024-01-20T19:40:00.251Z,99271.22
2024-01-20T19:42:26.901Z,99246.84
2024-01-20T19:44:54.452Z,99239.84
2024-01-20T19:47:22.399Z,99221.63
2024-01-20T19:49:54.452Z,99199.59
2024-01-20T19:52:21.338Z,99188.31
2024-01-20T19:54:48.020Z,99189.88
2024-01-20T19:57:16.639Z,99160.38
2024-01-20T19:59:43.401Z,99157.00
2024-01-20T20:02:10.084Z,99163.41
2024-01-20T20:04:40.285Z,99154.72
2024-01-20T20:07:09.887Z,99148.84
2024-01-20T20:09:38.723Z,99133.41
2024-01-20T20:12:07.036Z,99115.88
2024-01-20T20:14:34.063Z,99112.88
2024-01-20T20:17:00.714Z,99116.28
2024-01-20T20:19:27.390Z,99081.72
2024-01-20T20:21:54.133Z,99087.44
2024-01-20T20:24:20.826Z,99081.56
2024-01-20T20:26:47.548Z,99087.47
2024-01-20T20:29:14.630Z,99091.44
2024-01-20T20:31:41.682Z,99074.13
2024-01-20T20:34:08.976Z,99094.38
2024-01-20T20:36:36.021Z,99074.94
2024-01-20T20:39:03.147Z,99097.66
2024-01-20T20:41:29.852Z,99096.72
2024-01-20T20:43:56.646Z,99092.38
2024-01-20T20:46:23.399Z,99088.31
2024-01-20T20:48:50.129Z,99078.00
2024-01-20T20:51:16.829Z,99064.16
2024-01-20T20:53:43.643Z,99074.84
2024-01-20T20:56:10.306Z,99092.16
2024-01-20T20:58:36.914Z,99066.44
2024-01-20T21:01:03.756Z,99042.53
2024-01-20T21:03:30.879Z,99051.41
2024-01-20T21:05:57.996Z,99047.81
2024-01-20T21:08:24.799Z,99046.94
2024-01-20T21:10:52.396Z,99023.13
2024-01-20T21:13:19.023Z,99020.69
2024-01-20T21:15:45.743Z,99009.09
2024-01-20T21:18:12.702Z,99018.25
2024-01-20T21:20:39.620Z,99007.16
2024-01-20T21:23:06.290Z,99012.28
2024-01-20T21:25:32.917Z,98998.75
2024-01-20T21:27:59.610Z,99009.94
2024-01-20T21:30:28.306Z,98992.44
2024-01-20T21:32:55.237Z,99001.28
2024-01-20T21:35:23.085Z,99011.69
2024-01-20T21:37:49.885Z,98979.25
2024-01-20T21:40:16.586Z,98989.66
2024-01-20T21:42:43.365Z,98984.53
2024-01-20T21:45:11.033Z,99000.69
2024-01-20T21:47:37.846Z,99009.78
2024-01-20T21:50:05.016Z,99008.16
2024-01-20T21:52:31.607Z,98998.50
2024-01-20T21:54:58.644Z,98986.31
2024-01-20T21:57:25.753Z,98959.22
2024-01-20T21:59:52.450Z,98970.66
2024-01-20T22:02:19.126Z,98972.75
2024-01-20T22:04:45.773Z,98977.66
2024-01-20T22:07:12.392Z,98969.25
2024-01-20T22:09:39.321Z,98962.78
2024-01-20T22:12:06.162Z,98970.16
2024-01-20T22:14:32.845Z,98963.34
2024-01-20T22:16:59.429Z,98956.63
2024-01-20T22:19:26.299Z,98942.16
2024-01-20T22:21:53.037Z,98944.63
2024-01-20T22:24:20.567Z,98924.09
2024-01-20T22:26:47.201Z,98925.69
2024-01-20T22:29:19.537Z,98895.19
2024-01-20T22:31:55.153Z,98923.25
2024-01-20T22:34:22.101Z,98901.75
2024-01-20T22:36:49.031Z,98884.69
2024-01-20T22:39:15.996Z,98879.41
2024-01-20T22:41:42.652Z,98886.69
2024-01-20T22:44:10.094Z,98867.47
2024-01-20T22:46:36.753Z,98862.75
2024-01-20T22:49:03.536Z,98867.56
2024-01-20T22:51:30.604Z,98868.53
2024-01-20T22:53:57.231Z,98838.97
2024-01-20T22:56:23.920Z,98832.38
2024-01-20T22:58:50.612Z,98829.44
2024-01-20T23:01:17.507Z,98846.38
2024-01-20T23:03:44.885Z,98834.94
2024-01-20T23:06:12.363Z,98840.41
2024-01-20T23:08:40.403Z,98835.31
2024-01-20T23:11:07.261Z,98848.19
2024-01-20T23:13:33.877Z,98833.75
2024-01-20T23:16:00.501Z,98832.72
2024-01-20T23:18:27.352Z,98811.34
2024-01-20T23:20:54.234Z,98828.13
2024-01-20T23:23:21.013Z,98826.34
2024-01-20T23:25:47.653Z,98815.66
2024-01-20T23:28:14.247Z,98832.50
2024-01-20T23:30:42.092Z,98827.88
2024-01-20T23:33:08.972Z,98812.53
2024-01-20T23:35:36.160Z,98812.97
2024-01-20T23:38:02.931Z,98801.91
2024-01-20T23:40:29.638Z,98799.50
2024-01-20T23:42:56.278Z,98799.84
2024-01-20T23:45:22.952Z,98792.66
2024-01-20T23:47:49.659Z,98799.28
2024-01-20T23:50:16.361Z,98781.44
2024-01-20T23:52:43.080Z,98788.47
2024-01-20T23:55:09.765Z,98763.44
2024-01-20T23:57:39.871Z,98772.38
